sim
Sign-in with your pilot id or email,
or register
Callsign
Passwort

Schedule Details

Flight Number: OEO6460
Departure: Zurich Airport (LSZH) at 08:00
Arrival: Mumbai Chhatrapati Shivaji International Airport (VABB) at 16:15

Weather Information
Getting current METAR information for LSZH 091620Z 24012KT 9999 -SHRA FEW014 SCT018 BKN024 05/03 Q1008 TEMPO SHRA
Getting current METAR information for VABB 091600Z 33007KT 3500 FU NSC 29/23 Q1014 BECMG 4000 FU

Schedule Frequency

Route Map